Meteo Giornale » Osservazioni meteo Stati Uniti (USA) » Pine Ridge
ore: 15:52 - Osservazioni Meteo Pine Ridge
Lat. 43° 1' N Lon. 102° 31' W Alt. 1015 metri s.l.m.
30 °C
Poco Nuvoloso
Temp. 24 Ore
12 °C
31 °C
Ovest
9.3 Km/h
Dew point 14 °C
Umidità 37 %
Visibilità 10 Km
Il sole sorge alle ore 06:14
Il sole tramonta alle ore 19:25
| Data e Ora | Cielo e Fenomeni | T °C | DP °C | Um. % | Pres. hPa | Vis. km | Vento km/h | |
|---|---|---|---|---|---|---|---|---|
| Oggi h: 15:52 | Poco Nuvoloso | 30 | 14 | 37 | 1013 | 10 | O 9.3 | |
| Oggi h: 14:52 | Poco Nuvoloso | 28 | 15 | 45 | 1014 | 10 | O/SO 14.8 | |
| Oggi h: 13:52 | Sereno | 26 | 15 | 50 | 1015 | 10 | N 9.3 | |
| Oggi h: 12:52 | Sereno | 25 | 15 | 53 | 1015 | 10 | N 7.4 | |
| Oggi h: 11:52 | Nuvoloso | 23 | 16 | 64 | 1016 | 10 | E 13 | |
| Oggi h: 10:52 | Nuvoloso | 22 | 15 | 64 | 1017 | 10 | E/NE 7.4 | |
| Oggi h: 09:52 | Sereno | 19 | 15 | 77 | 1017 | 10 | O 7.4 | |
| Oggi h: 08:52 | Molto Nuvoloso | 18 | 16 | 88 | 1016 | 10 | N 0 | |
| Oggi h: 07:52 | Pioggia Foschia | 16 | 14 | 87 | 1016 | 8 | N 0 | |
| Oggi h: 06:52 | Coperto | 16 | 14 | 87 | 1017 | 10 | N 0 | |
| Oggi h: 05:52 | Coperto | 16 | 11 | 72 | 1017 | 10 | SO 11.1 | |
| Oggi h: 04:52 | Sereno | 14 | 10 | 76 | 1016 | 10 | N 0 | |
| Oggi h: 03:52 | Sereno | 14 | 9 | 71 | 1016 | 10 | N 0 | |
| Oggi h: 02:52 | Nuvoloso | 14 | 9 | 71 | 1016 | 10 | N 0 | |
| Oggi h: 01:52 | Sereno | 12 | 9 | 81 | 1016 | 10 | N 0 | |
| Oggi h: 00:52 | Sereno | 12 | 8 | 76 | 1017 | 10 | N 0 | |
| Ieri h: 23:52 | Sereno | 12 | 5 | 62 | 1017 | 10 | N 0 | |
| Ieri h: 22:52 | Sereno | 14 | 7 | 62 | 1017 | 10 | N 5.5 | |
| Ieri h: 21:52 | Sereno | 14 | 3 | 47 | 1017 | 10 | NE 7.4 | |
| Ieri h: 20:52 | Sereno | 18 | 3 | 36 | 1016 | 10 | E/NE 11.1 | |
| Ieri h: 19:52 | Sereno | 21 | 4 | 32 | 1015 | 10 | E/NE 11.1 | |
| Ieri h: 18:52 | Sereno | 27 | 2 | 19 | 1015 | 10 | N 0 | |
| Ieri h: 17:52 | Sereno | 30 | -2 | 12 | 1015 | 14 | O 7.4 | |
| Ieri h: 16:52 | Sereno | 31 | 1 | 14 | 1015 | 10 | N 5.5 | |



